createdAt,value
2018-09-22T00:01:14.200Z,18.91
2018-09-22T00:03:42.604Z,19.16
2018-09-22T00:06:10.951Z,19.46
2018-09-22T00:08:39.304Z,19.26
2018-09-22T00:11:07.677Z,19.84
2018-09-22T00:13:36.063Z,19.55
2018-09-22T00:16:04.449Z,19.46
2018-09-22T00:18:32.789Z,19.43
2018-09-22T00:21:01.356Z,19.48
2018-09-22T00:23:29.680Z,19.40
2018-09-22T00:25:58.546Z,18.65
2018-09-22T00:28:26.859Z,19.59
2018-09-22T00:30:55.148Z,19.32
2018-09-22T00:33:23.468Z,19.50
2018-09-22T00:35:51.846Z,18.83
2018-09-22T00:38:20.108Z,19.27
2018-09-22T00:40:48.506Z,19.18
2018-09-22T00:43:17.053Z,18.91
2018-09-22T00:45:45.347Z,18.99
2018-09-22T00:48:13.788Z,19.22
2018-09-22T00:50:42.193Z,18.87
2018-09-22T00:53:10.671Z,18.82
2018-09-22T00:55:39.004Z,18.94
2018-09-22T00:58:07.308Z,19.30
2018-09-22T01:00:35.673Z,19.16
2018-09-22T01:03:04.153Z,19.54
2018-09-22T01:05:32.483Z,19.24
2018-09-22T01:08:00.756Z,19.37
2018-09-22T01:10:29.191Z,18.99
2018-09-22T01:12:57.484Z,19.28
2018-09-22T01:15:25.888Z,19.18
2018-09-22T01:17:54.274Z,19.34
2018-09-22T01:20:22.732Z,18.91
2018-09-22T01:22:51.150Z,19.23
2018-09-22T01:25:19.531Z,19.17
2018-09-22T01:27:47.882Z,18.81
2018-09-22T01:30:16.228Z,19.22
2018-09-22T01:32:44.617Z,19.25
2018-09-22T01:35:12.908Z,19.12
2018-09-22T01:37:41.472Z,19.11
2018-09-22T01:40:09.880Z,19.08
2018-09-22T01:42:38.212Z,18.95
2018-09-22T01:45:06.565Z,18.71
2018-09-22T01:47:34.864Z,18.51
2018-09-22T01:50:03.209Z,18.81
2018-09-22T01:52:31.624Z,18.47
2018-09-22T01:54:59.875Z,18.48
2018-09-22T01:57:28.166Z,18.59
2018-09-22T01:59:57.071Z,19.26
2018-09-22T02:02:25.407Z,19.10
2018-09-22T02:04:53.720Z,18.80
2018-09-22T02:07:22.107Z,19.18
2018-09-22T02:09:50.443Z,18.81
2018-09-22T02:12:18.829Z,18.96
2018-09-22T02:14:47.183Z,18.45
2018-09-22T02:17:15.510Z,18.27
2018-09-22T02:19:43.951Z,18.91
2018-09-22T02:22:12.582Z,18.56
2018-09-22T02:24:40.901Z,18.84
2018-09-22T02:27:09.347Z,18.87
2018-09-22T02:29:37.658Z,18.37
2018-09-22T02:32:06.047Z,18.19
2018-09-22T02:34:34.441Z,18.66
2018-09-22T02:37:03.498Z,18.43
2018-09-22T02:39:31.754Z,18.64
2018-09-22T02:42:00.210Z,18.18
2018-09-22T02:44:28.542Z,18.38
2018-09-22T02:46:56.892Z,18.41
2018-09-22T02:49:25.303Z,18.38
2018-09-22T02:51:53.941Z,18.41
2018-09-22T02:54:22.372Z,18.27
2018-09-22T02:56:50.714Z,17.63
2018-09-22T02:59:19.262Z,18.37
2018-09-22T03:01:47.591Z,18.49
2018-09-22T03:04:15.892Z,18.13
2018-09-22T03:06:44.411Z,18.51
2018-09-22T03:09:12.637Z,18.72
2018-09-22T03:11:40.973Z,18.78
2018-09-22T03:14:09.643Z,18.76
2018-09-22T03:16:38.027Z,18.66
2018-09-22T03:19:06.561Z,18.81
2018-09-22T03:21:34.894Z,18.88
2018-09-22T03:24:03.272Z,19.05
2018-09-22T03:26:36.636Z,18.86
2018-09-22T03:29:05.446Z,19.05
2018-09-22T03:31:33.925Z,18.96
2018-09-22T03:34:02.206Z,18.91
2018-09-22T03:36:30.633Z,18.90
2018-09-22T03:38:59.084Z,19.01
2018-09-22T03:41:27.449Z,18.89
2018-09-22T03:43:55.714Z,18.80
2018-09-22T03:46:24.058Z,18.62
2018-09-22T03:48:52.391Z,18.60
2018-09-22T03:51:20.842Z,18.22
2018-09-22T03:53:49.180Z,18.55
2018-09-22T03:56:17.580Z,18.59
2018-09-22T03:58:45.841Z,18.59
2018-09-22T04:01:14.214Z,18.28
2018-09-22T04:03:42.491Z,18.49
2018-09-22T04:06:11.388Z,18.41
2018-09-22T04:08:39.654Z,18.11
2018-09-22T04:11:07.945Z,18.30
2018-09-22T04:13:36.301Z,18.21
2018-09-22T04:16:04.703Z,17.88
2018-09-22T04:18:32.946Z,18.32
2018-09-22T04:21:01.215Z,18.26
2018-09-22T04:23:29.707Z,17.99
2018-09-22T04:25:58.134Z,18.06
2018-09-22T04:28:26.494Z,18.02
2018-09-22T04:30:54.820Z,17.79
2018-09-22T04:33:23.151Z,17.98
2018-09-22T04:35:51.483Z,17.95
2018-09-22T04:38:19.804Z,18.27
2018-09-22T04:40:48.343Z,17.55
2018-09-22T04:43:16.671Z,18.08
2018-09-22T04:45:44.932Z,18.21
2018-09-22T04:48:13.422Z,18.22
2018-09-22T04:50:41.756Z,18.45
2018-09-22T04:53:10.181Z,18.25
2018-09-22T04:55:38.512Z,18.09
2018-09-22T04:58:07.093Z,18.04
2018-09-22T05:00:35.497Z,18.06
2018-09-22T05:03:03.836Z,18.20
2018-09-22T05:05:32.248Z,18.53
2018-09-22T05:08:00.552Z,18.44
2018-09-22T05:10:28.946Z,18.36
2018-09-22T05:12:57.289Z,18.14
2018-09-22T05:15:25.620Z,17.75
2018-09-22T05:17:53.932Z,18.34
2018-09-22T05:20:22.244Z,18.22
2018-09-22T05:22:50.664Z,18.39
2018-09-22T05:25:19.052Z,18.29
2018-09-22T05:27:47.493Z,18.37
2018-09-22T05:30:15.844Z,18.33
2018-09-22T05:32:44.245Z,18.19
2018-09-22T05:35:12.788Z,18.12
2018-09-22T05:37:41.181Z,18.22
2018-09-22T05:40:09.534Z,18.02
2018-09-22T05:42:37.982Z,18.13
2018-09-22T05:45:06.916Z,18.26
2018-09-22T05:47:35.354Z,18.48
2018-09-22T05:50:03.691Z,18.88
2018-09-22T05:52:32.080Z,18.65
2018-09-22T05:55:00.483Z,18.51
2018-09-22T05:57:28.771Z,18.68
2018-09-22T05:59:57.112Z,18.21
2018-09-22T06:02:25.515Z,18.76
2018-09-22T06:04:54.636Z,18.65
2018-09-22T06:07:22.995Z,18.96
2018-09-22T06:09:52.281Z,18.63
2018-09-22T06:12:20.886Z,18.40
2018-09-22T06:14:49.200Z,18.86
2018-09-22T06:17:17.552Z,19.20
2018-09-22T06:19:46.193Z,19.20
2018-09-22T06:22:14.494Z,19.45
2018-09-22T06:24:42.914Z,19.54
2018-09-22T06:27:11.515Z,19.58
2018-09-22T06:29:39.820Z,19.53
2018-09-22T06:32:08.417Z,19.44
2018-09-22T06:34:36.977Z,19.39
2018-09-22T06:37:05.863Z,19.77
2018-09-22T06:39:34.214Z,19.76
2018-09-22T06:42:02.666Z,19.50
2018-09-22T06:44:31.003Z,19.36
2018-09-22T06:46:59.254Z,19.43
2018-09-22T06:49:27.652Z,19.79
2018-09-22T06:51:56.023Z,19.64
2018-09-22T06:54:24.330Z,19.60
2018-09-22T06:56:52.810Z,19.59
2018-09-22T06:59:21.094Z,19.17
2018-09-22T07:01:49.357Z,19.16
2018-09-22T07:04:17.729Z,19.65
2018-09-22T07:06:46.201Z,20.07
2018-09-22T07:09:14.580Z,20.74
2018-09-22T07:11:42.891Z,19.86
2018-09-22T07:14:11.176Z,19.43
2018-09-22T07:16:39.736Z,19.95
2018-09-22T07:19:08.178Z,20.00
2018-09-22T07:21:41.888Z,19.95
2018-09-22T07:24:10.217Z,20.28
2018-09-22T07:26:38.583Z,20.07
2018-09-22T07:29:06.916Z,19.78
2018-09-22T07:31:35.626Z,19.73
2018-09-22T07:34:03.952Z,20.21
2018-09-22T07:36:32.343Z,20.04
2018-09-22T07:39:00.700Z,20.49
2018-09-22T07:41:29.076Z,19.29
2018-09-22T07:43:57.429Z,19.60
2018-09-22T07:46:25.836Z,20.72
2018-09-22T07:48:54.264Z,20.63
2018-09-22T07:51:22.570Z,21.04
2018-09-22T07:53:50.856Z,21.17
2018-09-22T07:56:19.225Z,20.76
2018-09-22T07:58:47.820Z,19.72
2018-09-22T08:01:16.138Z,20.82
2018-09-22T08:03:44.552Z,20.14
2018-09-22T08:06:12.918Z,20.94
2018-09-22T08:08:41.264Z,21.62
2018-09-22T08:11:09.914Z,20.95
2018-09-22T08:13:38.404Z,21.30
2018-09-22T08:16:07.182Z,20.98
2018-09-22T08:18:35.705Z,20.98
2018-09-22T08:21:04.133Z,21.54
2018-09-22T08:23:32.460Z,21.64
2018-09-22T08:26:00.901Z,21.57
2018-09-22T08:28:29.425Z,20.91
2018-09-22T08:30:57.732Z,20.68
2018-09-22T08:33:26.160Z,20.83
2018-09-22T08:35:54.904Z,20.48
2018-09-22T08:38:23.266Z,20.41
2018-09-22T08:40:51.592Z,20.78
2018-09-22T08:43:20.041Z,21.74
2018-09-22T08:45:48.418Z,20.99
2018-09-22T08:48:16.980Z,20.75
2018-09-22T08:50:45.396Z,21.62
2018-09-22T08:53:13.825Z,21.75
2018-09-22T08:55:42.339Z,21.60
2018-09-22T08:58:10.783Z,21.99
2018-09-22T09:00:39.359Z,21.64
2018-09-22T09:03:07.883Z,21.55
2018-09-22T09:05:36.316Z,21.20
2018-09-22T09:08:04.788Z,22.14
2018-09-22T09:10:33.173Z,21.69
2018-09-22T09:13:01.863Z,21.50
2018-09-22T09:15:30.160Z,22.54
2018-09-22T09:17:58.764Z,21.74
2018-09-22T09:20:27.366Z,22.63
2018-09-22T09:22:55.803Z,23.30
2018-09-22T09:25:24.416Z,23.94
2018-09-22T09:27:52.837Z,22.90
2018-09-22T09:30:21.221Z,22.58
2018-09-22T09:32:49.730Z,22.14
2018-09-22T09:35:18.510Z,21.92
2018-09-22T09:37:46.840Z,23.26
2018-09-22T09:40:15.350Z,23.84
2018-09-22T09:42:44.663Z,23.38
2018-09-22T09:45:13.125Z,23.12
2018-09-22T09:47:41.869Z,22.76
2018-09-22T09:50:10.170Z,23.56
2018-09-22T09:52:38.535Z,23.36
2018-09-22T09:55:07.059Z,23.08
2018-09-22T09:57:35.383Z,23.65
2018-09-22T10:00:03.901Z,22.75
2018-09-22T10:02:34.008Z,22.82
2018-09-22T10:05:02.665Z,22.47
2018-09-22T10:07:30.979Z,22.74
2018-09-22T10:09:59.288Z,23.28
2018-09-22T10:12:27.625Z,23.07
2018-09-22T10:14:56.062Z,23.15
2018-09-22T10:17:24.629Z,24.46
2018-09-22T10:19:53.072Z,24.27
2018-09-22T10:22:22.029Z,23.64
2018-09-22T10:24:50.474Z,23.99
2018-09-22T10:27:19.429Z,23.69
2018-09-22T10:29:48.285Z,22.97
2018-09-22T10:32:17.314Z,22.81
2018-09-22T10:34:45.829Z,23.35
2018-09-22T10:37:14.225Z,23.09
2018-09-22T10:39:42.722Z,23.55
2018-09-22T10:42:11.118Z,22.74
2018-09-22T10:44:40.245Z,23.69
2018-09-22T10:47:09.026Z,23.29
2018-09-22T10:49:37.463Z,24.55
2018-09-22T10:52:05.926Z,23.88
2018-09-22T10:54:34.374Z,23.53
2018-09-22T10:57:02.796Z,23.93
2018-09-22T10:59:33.282Z,23.67
2018-09-22T11:02:02.082Z,24.39
2018-09-22T11:04:30.475Z,24.49
2018-09-22T11:06:59.018Z,24.04
2018-09-22T11:09:27.891Z,25.24
2018-09-22T11:11:56.447Z,25.44
2018-09-22T11:14:24.800Z,25.18
2018-09-22T11:16:53.094Z,25.08
2018-09-22T11:19:21.387Z,25.18
2018-09-22T11:21:50.029Z,24.74
2018-09-22T11:24:18.496Z,24.80
2018-09-22T11:26:47.810Z,24.67
2018-09-22T11:29:16.262Z,25.73
2018-09-22T11:31:44.530Z,24.90
2018-09-22T11:34:12.801Z,25.68
2018-09-22T11:36:41.353Z,27.03
2018-09-22T11:39:10.518Z,27.11
2018-09-22T11:41:39.302Z,27.23
2018-09-22T11:44:07.876Z,27.37
2018-09-22T11:46:36.380Z,27.12
2018-09-22T11:49:06.842Z,28.59
2018-09-22T11:51:35.634Z,28.52
2018-09-22T11:54:04.343Z,28.56
2018-09-22T11:56:32.798Z,28.03
2018-09-22T11:59:01.282Z,27.95
2018-09-22T12:01:30.816Z,28.62
2018-09-22T12:03:59.716Z,28.13
2018-09-22T12:06:28.253Z,27.02
2018-09-22T12:08:56.582Z,27.41
2018-09-22T12:11:24.890Z,27.49
2018-09-22T12:13:53.394Z,27.50
2018-09-22T12:16:21.728Z,26.27
2018-09-22T12:18:50.392Z,29.21
2018-09-22T12:21:18.897Z,30.95
2018-09-22T12:23:47.958Z,29.88
2018-09-22T12:26:16.475Z,30.51
2018-09-22T12:28:45.426Z,31.85
2018-09-22T12:31:13.893Z,33.44
2018-09-22T12:33:42.308Z,36.57
2018-09-22T12:36:11.266Z,34.79
2018-09-22T12:38:50.782Z,30.37
2018-09-22T12:41:19.499Z,28.68
2018-09-22T12:43:48.130Z,30.11
2018-09-22T12:46:16.568Z,28.17
2018-09-22T12:48:44.988Z,27.07
2018-09-22T12:51:13.548Z,30.34
2018-09-22T12:53:42.919Z,32.45
2018-09-22T12:56:11.206Z,35.85
2018-09-22T12:58:39.506Z,36.90
2018-09-22T13:01:07.822Z,37.36
2018-09-22T13:03:37.422Z,34.58
2018-09-22T13:06:06.021Z,31.12
2018-09-22T13:08:34.445Z,29.65
2018-09-22T13:11:02.810Z,34.01
2018-09-22T13:13:31.457Z,36.40
2018-09-22T13:15:59.855Z,36.63
2018-09-22T13:18:28.138Z,37.10
2018-09-22T13:20:56.471Z,38.62
2018-09-22T13:23:24.755Z,38.39
2018-09-22T13:25:53.156Z,38.60
2018-09-22T13:28:21.565Z,40.35
2018-09-22T13:30:49.920Z,40.04
2018-09-22T13:33:18.316Z,38.72
2018-09-22T13:35:46.750Z,38.42
2018-09-22T13:38:15.383Z,36.40
2018-09-22T13:40:43.682Z,34.41
2018-09-22T13:43:12.354Z,32.54
2018-09-22T13:45:40.812Z,31.21
2018-09-22T13:48:09.225Z,30.69
2018-09-22T13:50:37.601Z,33.35
2018-09-22T13:53:06.292Z,35.39
2018-09-22T13:55:34.648Z,35.35
2018-09-22T13:58:03.108Z,35.52
2018-09-22T14:00:31.456Z,33.96
2018-09-22T14:02:59.750Z,33.47
2018-09-22T14:05:28.066Z,32.95
2018-09-22T14:07:56.452Z,35.52
2018-09-22T14:10:25.358Z,36.09
2018-09-22T14:12:53.642Z,35.49
2018-09-22T14:15:22.088Z,34.94
2018-09-22T14:17:50.538Z,35.54
2018-09-22T14:20:18.807Z,36.12
2018-09-22T14:22:47.963Z,34.67
2018-09-22T14:25:16.350Z,32.37
2018-09-22T14:27:44.752Z,31.55
2018-09-22T14:30:13.189Z,31.35
2018-09-22T14:32:41.631Z,32.09
2018-09-22T14:35:10.143Z,32.40
2018-09-22T14:37:38.566Z,32.30
2018-09-22T14:40:07.001Z,32.95
2018-09-22T14:42:35.342Z,32.37
2018-09-22T14:45:03.758Z,31.64
2018-09-22T14:47:32.076Z,32.51
2018-09-22T14:50:00.424Z,33.83
2018-09-22T14:52:28.706Z,34.36
2018-09-22T14:54:56.995Z,31.47
2018-09-22T14:57:25.344Z,30.04
2018-09-22T14:59:53.782Z,28.88
2018-09-22T15:02:22.107Z,28.28
2018-09-22T15:04:50.498Z,26.92
2018-09-22T15:07:18.780Z,26.52
2018-09-22T15:09:47.573Z,25.66
2018-09-22T15:12:15.882Z,26.91
2018-09-22T15:14:44.258Z,26.80
2018-09-22T15:17:12.574Z,26.26
2018-09-22T15:19:40.844Z,27.24
2018-09-22T15:22:09.187Z,27.70
2018-09-22T15:24:37.775Z,28.02
2018-09-22T15:27:06.069Z,28.24
2018-09-22T15:29:34.464Z,28.59
2018-09-22T15:32:02.894Z,28.17
2018-09-22T15:34:31.520Z,27.79
2018-09-22T15:37:00.339Z,27.69
2018-09-22T15:39:28.805Z,26.46
2018-09-22T15:41:57.291Z,26.12
2018-09-22T15:44:26.181Z,26.44
2018-09-22T15:46:54.808Z,25.34
2018-09-22T15:49:23.349Z,24.82
2018-09-22T15:51:51.741Z,24.04
2018-09-22T15:54:20.154Z,23.91
2018-09-22T15:56:48.450Z,24.89
2018-09-22T15:59:16.856Z,24.96
2018-09-22T16:01:45.360Z,24.06
2018-09-22T16:04:13.768Z,24.05
2018-09-22T16:06:42.075Z,24.10
2018-09-22T16:09:10.505Z,23.55
2018-09-22T16:11:38.772Z,24.12
2018-09-22T16:14:07.247Z,23.26
2018-09-22T16:16:38.614Z,23.81
2018-09-22T16:19:06.952Z,23.30
2018-09-22T16:21:35.374Z,23.31
2018-09-22T16:24:03.642Z,23.34
2018-09-22T16:26:32.198Z,23.91
2018-09-22T16:29:00.554Z,24.17
2018-09-22T16:31:28.989Z,23.33
2018-09-22T16:33:57.285Z,23.07
2018-09-22T16:36:25.748Z,23.34
2018-09-22T16:38:54.053Z,23.93
2018-09-22T16:41:22.383Z,23.23
2018-09-22T16:43:50.739Z,23.52
2018-09-22T16:46:19.052Z,23.02
2018-09-22T16:48:47.457Z,23.42
2018-09-22T16:51:15.750Z,23.56
2018-09-22T16:53:44.109Z,23.69
2018-09-22T16:56:12.625Z,24.02
2018-09-22T16:58:40.919Z,23.69
2018-09-22T17:01:09.357Z,23.99
2018-09-22T17:03:37.859Z,23.70
2018-09-22T17:06:07.886Z,24.06
2018-09-22T17:08:36.211Z,23.38
2018-09-22T17:11:04.577Z,23.55
2018-09-22T17:13:32.920Z,23.81
2018-09-22T17:16:01.350Z,24.23
2018-09-22T17:18:30.117Z,24.20
2018-09-22T17:20:58.396Z,23.97
2018-09-22T17:23:26.756Z,23.75
2018-09-22T17:25:55.212Z,23.78
2018-09-22T17:28:23.948Z,23.62
2018-09-22T17:30:52.445Z,23.48
2018-09-22T17:33:20.939Z,23.74
2018-09-22T17:35:49.286Z,24.41
2018-09-22T17:38:17.719Z,24.43
2018-09-22T17:40:46.032Z,24.25
2018-09-22T17:43:14.333Z,24.55
2018-09-22T17:45:42.593Z,25.10
2018-09-22T17:48:11.020Z,24.83
2018-09-22T17:50:39.319Z,24.90
2018-09-22T17:53:07.875Z,24.63
2018-09-22T17:55:36.175Z,24.53
2018-09-22T17:58:04.768Z,24.16
2018-09-22T18:00:33.088Z,24.06
2018-09-22T18:03:01.468Z,23.99
2018-09-22T18:05:29.776Z,23.41
2018-09-22T18:07:58.110Z,23.77
2018-09-22T18:10:26.493Z,23.90
2018-09-22T18:12:54.844Z,24.21
2018-09-22T18:15:23.185Z,24.36
2018-09-22T18:17:51.841Z,24.52
2018-09-22T18:20:20.105Z,24.60
2018-09-22T18:22:48.570Z,24.79
2018-09-22T18:25:17.023Z,24.90
2018-09-22T18:27:45.267Z,25.16
2018-09-22T18:30:14.504Z,25.17
2018-09-22T18:32:42.809Z,25.22
2018-09-22T18:35:11.222Z,25.25
2018-09-22T18:37:39.643Z,25.33
2018-09-22T18:40:08.010Z,24.84
2018-09-22T18:42:36.384Z,24.77
2018-09-22T18:45:05.101Z,24.68
2018-09-22T18:47:33.437Z,24.47
2018-09-22T18:50:01.799Z,24.19
2018-09-22T18:52:30.325Z,23.88
2018-09-22T18:54:58.672Z,24.04
2018-09-22T18:57:26.983Z,24.53
2018-09-22T18:59:55.374Z,24.22
2018-09-22T19:02:23.814Z,24.05
2018-09-22T19:04:52.128Z,24.35
2018-09-22T19:07:20.397Z,24.04
2018-09-22T19:09:48.747Z,24.02
2018-09-22T19:12:17.187Z,23.96
2018-09-22T19:14:49.019Z,23.58
2018-09-22T19:17:20.303Z,23.31
2018-09-22T19:19:58.815Z,23.42
2018-09-22T19:22:30.465Z,23.59
2018-09-22T19:25:02.549Z,23.39
2018-09-22T19:27:34.033Z,23.63
2018-09-22T19:30:07.654Z,24.19
2018-09-22T19:32:43.999Z,24.50
2018-09-22T19:35:18.228Z,24.55
2018-09-22T19:37:53.106Z,23.91
2018-09-22T19:40:28.134Z,23.98
2018-09-22T19:43:01.610Z,23.94
2018-09-22T19:45:35.210Z,24.30
2018-09-22T19:48:40.611Z,24.26
2018-09-22T19:51:11.283Z,24.38
2018-09-22T19:53:41.249Z,23.91
2018-09-22T19:56:09.616Z,24.01
2018-09-22T19:58:37.997Z,24.33
2018-09-22T20:01:06.927Z,23.97
2018-09-22T20:03:35.372Z,24.01
2018-09-22T20:06:03.734Z,23.92
2018-09-22T20:08:32.164Z,23.64
2018-09-22T20:11:00.485Z,23.62
2018-09-22T20:13:28.816Z,23.53
2018-09-22T20:15:57.219Z,23.53
2018-09-22T20:18:25.630Z,23.50
2018-09-22T20:20:53.994Z,23.60
2018-09-22T20:23:28.913Z,23.46
2018-09-22T20:25:57.185Z,23.64
2018-09-22T20:28:25.877Z,23.61
2018-09-22T20:30:54.298Z,23.66
2018-09-22T20:33:22.661Z,23.99
2018-09-22T20:35:50.957Z,23.78
2018-09-22T20:38:19.205Z,24.09
2018-09-22T20:40:47.544Z,24.02
2018-09-22T20:43:15.896Z,24.05
2018-09-22T20:45:44.218Z,24.05
2018-09-22T20:48:12.469Z,23.71
2018-09-22T20:50:40.784Z,23.72
2018-09-22T20:53:09.142Z,23.66
2018-09-22T20:55:37.410Z,23.34
2018-09-22T20:58:06.581Z,23.63
2018-09-22T21:00:34.902Z,24.59
2018-09-22T21:03:03.318Z,24.51
2018-09-22T21:05:31.649Z,24.57
2018-09-22T21:07:59.988Z,23.52
2018-09-22T21:10:28.263Z,23.71
2018-09-22T21:12:56.812Z,23.65
2018-09-22T21:15:25.330Z,23.52
2018-09-22T21:17:53.652Z,22.99
2018-09-22T21:20:21.949Z,22.71
2018-09-22T21:22:50.265Z,22.51
2018-09-22T21:25:18.524Z,22.23
2018-09-22T21:27:46.821Z,22.43
2018-09-22T21:30:15.326Z,22.35
2018-09-22T21:32:43.769Z,21.99
2018-09-22T21:35:12.155Z,22.72
2018-09-22T21:37:40.430Z,22.90
2018-09-22T21:40:08.761Z,22.87
2018-09-22T21:42:37.175Z,22.95
2018-09-22T21:45:05.927Z,23.08
2018-09-22T21:47:34.509Z,22.59
2018-09-22T21:50:02.796Z,22.58
2018-09-22T21:52:31.200Z,22.49
2018-09-22T21:55:00.118Z,22.57
2018-09-22T21:57:28.753Z,22.40
2018-09-22T21:59:57.195Z,22.11
2018-09-22T22:02:25.626Z,22.07
2018-09-22T22:04:54.030Z,22.29
2018-09-22T22:07:22.443Z,22.35
2018-09-22T22:09:50.719Z,22.65
2018-09-22T22:12:20.030Z,22.73
2018-09-22T22:14:48.576Z,22.83
2018-09-22T22:17:17.192Z,22.67
2018-09-22T22:19:45.859Z,22.31
2018-09-22T22:22:14.717Z,22.10
2018-09-22T22:24:43.227Z,22.06
2018-09-22T22:27:11.874Z,22.29
2018-09-22T22:29:40.671Z,22.06
2018-09-22T22:32:09.215Z,22.14
2018-09-22T22:34:37.688Z,21.93
2018-09-22T22:37:06.136Z,22.03
2018-09-22T22:39:34.634Z,21.99
2018-09-22T22:42:03.032Z,22.02
2018-09-22T22:44:31.856Z,21.48
2018-09-22T22:47:00.278Z,21.89
2018-09-22T22:49:28.696Z,21.60
2018-09-22T22:51:57.135Z,20.84
2018-09-22T22:54:25.544Z,20.50
2018-09-22T22:56:53.847Z,20.07
2018-09-22T22:59:22.299Z,20.04
2018-09-22T23:01:53.758Z,19.92
2018-09-22T23:04:22.477Z,20.10
2018-09-22T23:06:50.776Z,20.60
2018-09-22T23:09:19.133Z,20.74
2018-09-22T23:11:47.610Z,20.63
2018-09-22T23:14:16.028Z,20.81
2018-09-22T23:16:44.367Z,20.40
2018-09-22T23:19:12.824Z,20.49
2018-09-22T23:21:41.344Z,20.18
2018-09-22T23:24:09.692Z,20.30
2018-09-22T23:26:38.068Z,20.13
2018-09-22T23:29:06.515Z,20.66
2018-09-22T23:31:34.850Z,19.52
2018-09-22T23:34:03.233Z,20.06
2018-09-22T23:36:32.054Z,20.08
2018-09-22T23:39:00.393Z,19.96
2018-09-22T23:41:29.960Z,20.41
2018-09-22T23:43:58.481Z,19.90
2018-09-22T23:46:26.854Z,20.48
2018-09-22T23:48:57.318Z,19.98
2018-09-22T23:51:26.598Z,20.45
2018-09-22T23:53:54.976Z,20.19
2018-09-22T23:56:23.300Z,19.82
2018-09-22T23:58:51.744Z,20.16
